Wichita, KS (67277)

1:35 PM CDT on September 29, 2016 (GMT -0500)
Near the airport | | Change Station

Elev 1348 ft 37.65 °N, 97.44 °W | Updated 1 second ago

Scattered Clouds
Scattered Clouds
66.7 °F
Feels Like 66.7 °F
N
5.0
Wind Variable Wind from NNW
Gusts 5.0 mph

Today
High -- | Low -- °F
--% Chance of Precip.
Yesterday
High -- | Low -- °F
Precip. -- in
Pressure 30.39 in
Visibility 10.0 miles
Clouds Scattered Clouds 3500 ft
Scattered Clouds 25000 ft
Dew Point 50 °F
Humidity 55%
Rainfall 0.00 in
Snow Depth Not available.
7:23 AM 7:15 PM
Waning Crescent, 1% visible
METAR KICT 291753Z VRB06KT 10SM SCT035 SCT250 19/09 A3040 RMK AO2 SLP289 T01940094 10200 20094 58007
Pressure 30.39 in
Visibility 10.0 miles
Clouds Scattered Clouds 3500 ft
Scattered Clouds 25000 ft
Dew Point 50 °F
Humidity 55%
Rainfall 0.00 in
Snow Depth Not available.
7:23 AM 7:15 PM
Waning Crescent, 1% visible
METAR KICT 291753Z VRB06KT 10SM SCT035 SCT250 19/09 A3040 RMK AO2 SLP289 T01940094 10200 20094 58007

10-Day Weather Forecast

Almanac

Astronomy

Sep. 29, 2016 Rise Set
Actual Time
Civil Twilight
Nautical Twilight
Astronomical Twilight
Moon
Length of Visible Light
Length of Day
Tomorrow will be .
, % of the Moon is Illuminated

Today's Extremes

State Highs State Lows

Community

WunderPhotos

Upload Photos

1,942,545 photos uploaded!

WunderBlog® & News

Nearby

Air Quality

  Air Quality AQ Index Pollutant
Not available.

Snow Depth

Station Depth Elevation

Earthquake Activity

City Distance Mag. Time & Date
Minimum magnitude displayed is 2.5.

Coastal Water Temperatures

Place Temperature

Stations

Nearby Weather Stations

Station Location Temp. Windchill Dew Point Humidity Wind Precip. Elev Updated Type
                   

Watches & Warnings

There are currently no watches in effect.